createdAt,value
2023-04-15T00:01:04.220Z,4.53
2023-04-15T00:03:30.896Z,3.17
2023-04-15T00:05:58.587Z,4.93
2023-04-15T00:08:25.660Z,7.27
2023-04-15T00:10:52.919Z,6.17
2023-04-15T00:13:20.333Z,4.43
2023-04-15T00:15:47.488Z,3.40
2023-04-15T00:18:14.597Z,3.83
2023-04-15T00:20:41.676Z,3.73
2023-04-15T00:23:54.774Z,5.37
2023-04-15T00:26:21.466Z,3.03
2023-04-15T00:28:49.606Z,2.83
2023-04-15T00:31:16.488Z,4.43
2023-04-15T00:34:10.174Z,4.73
2023-04-15T00:36:36.854Z,5.30
2023-04-15T00:39:16.471Z,4.07
2023-04-15T00:41:43.671Z,4.37
2023-04-15T00:44:10.776Z,3.20
2023-04-15T00:46:54.412Z,5.83
2023-04-15T00:49:21.433Z,3.50
2023-04-15T00:51:48.208Z,2.73
2023-04-15T00:54:41.753Z,3.30
2023-04-15T00:57:08.993Z,4.33
2023-04-15T00:59:36.168Z,3.93
2023-04-15T01:02:03.039Z,5.67
2023-04-15T01:04:30.827Z,3.53
2023-04-15T01:06:58.055Z,3.60
2023-04-15T01:09:27.542Z,3.57
2023-04-15T01:16:26.803Z,4.27
2023-04-15T01:18:53.670Z,3.30
2023-04-15T01:22:05.701Z,4.37
2023-04-15T01:24:34.102Z,4.67
2023-04-15T01:27:00.842Z,5.03
2023-04-15T01:29:28.128Z,4.50
2023-04-15T01:31:56.495Z,3.57
2023-04-15T01:38:15.009Z,3.87
2023-04-15T01:40:41.572Z,3.87
2023-04-15T01:43:35.158Z,5.13
2023-04-15T01:46:02.385Z,2.93
2023-04-15T01:48:29.188Z,3.70
2023-04-15T01:51:33.026Z,2.77
2023-04-15T01:53:59.773Z,3.37
2023-04-15T01:56:26.743Z,2.30
2023-04-15T01:58:53.833Z,2.67
2023-04-15T02:01:32.086Z,3.40
2023-04-15T02:03:59.858Z,3.10
2023-04-15T02:06:28.343Z,2.33
2023-04-15T02:08:55.514Z,3.57
2023-04-15T02:11:23.223Z,3.87
2023-04-15T02:13:49.962Z,4.30
2023-04-15T02:16:19.658Z,4.97
2023-04-15T02:18:47.107Z,5.57
2023-04-15T02:21:48.072Z,3.07
2023-04-15T02:24:17.986Z,3.50
2023-04-15T02:26:44.655Z,3.00
2023-04-15T02:29:11.434Z,6.00
2023-04-15T02:31:40.790Z,4.40
2023-04-15T02:34:08.260Z,4.20
2023-04-15T02:36:57.384Z,4.23
2023-04-15T02:39:24.465Z,3.03
2023-04-15T02:41:53.875Z,5.67
2023-04-15T02:44:22.029Z,4.33
2023-04-15T02:47:02.413Z,3.83
2023-04-15T02:49:31.056Z,2.90
2023-04-15T02:51:58.349Z,3.37
2023-04-15T02:54:26.125Z,3.30
2023-04-15T02:56:55.367Z,4.20
2023-04-15T02:59:22.611Z,3.50
2023-04-15T03:01:49.416Z,6.73
2023-04-15T03:04:16.407Z,3.20
2023-04-15T03:06:43.208Z,3.83
2023-04-15T03:09:10.400Z,4.17
2023-04-15T03:11:40.854Z,3.27
2023-04-15T03:14:09.491Z,3.77
2023-04-15T03:16:42.409Z,3.60
2023-04-15T03:19:09.128Z,4.33
2023-04-15T03:21:35.996Z,3.90
2023-04-15T03:24:02.738Z,2.60
2023-04-15T03:27:26.045Z,4.33
2023-04-15T03:29:56.877Z,4.63
2023-04-15T03:32:25.928Z,4.70
2023-04-15T03:34:52.782Z,3.30
2023-04-15T03:37:19.596Z,4.53
2023-04-15T03:40:21.735Z,5.43
2023-04-15T03:42:48.444Z,5.43
2023-04-15T03:45:21.497Z,2.97
2023-04-15T03:47:49.797Z,3.70
2023-04-15T03:50:16.922Z,6.67
2023-04-15T03:52:44.971Z,4.00
2023-04-15T03:55:11.545Z,2.60
2023-04-15T03:57:59.869Z,2.73
2023-04-15T04:00:26.440Z,3.30
2023-04-15T04:02:53.527Z,4.47
2023-04-15T04:05:20.355Z,4.23
2023-04-15T04:07:47.384Z,5.13
2023-04-15T04:10:14.343Z,3.97
2023-04-15T04:12:40.923Z,3.83
2023-04-15T04:15:08.480Z,3.00
2023-04-15T04:17:36.011Z,3.33
2023-04-15T04:20:02.803Z,4.77
2023-04-15T04:22:29.503Z,7.67
2023-04-15T04:25:43.745Z,5.80
2023-04-15T04:28:11.668Z,2.90
2023-04-15T04:30:38.466Z,5.60
2023-04-15T04:33:51.019Z,4.83
2023-04-15T04:36:17.801Z,5.53
2023-04-15T04:39:07.985Z,3.70
2023-04-15T04:41:34.536Z,4.83
2023-04-15T04:44:01.225Z,2.47
2023-04-15T04:46:28.019Z,4.53
2023-04-15T04:48:54.803Z,3.10
2023-04-15T04:51:21.733Z,2.60
2023-04-15T04:54:04.415Z,4.13
2023-04-15T04:56:31.228Z,3.77
2023-04-15T04:59:00.117Z,6.97
2023-04-15T05:01:27.687Z,5.03
2023-04-15T05:03:55.212Z,8.63
2023-04-15T05:06:22.338Z,4.00
2023-04-15T05:08:51.490Z,4.47
2023-04-15T05:11:18.184Z,6.50
2023-04-15T05:13:44.882Z,5.27
2023-04-15T05:16:11.778Z,5.67
2023-04-15T05:18:38.435Z,5.13
2023-04-15T05:21:14.876Z,3.80
2023-04-15T05:23:41.835Z,4.03
2023-04-15T05:26:08.659Z,4.90
2023-04-15T05:28:35.427Z,5.47
2023-04-15T05:31:22.465Z,4.27
2023-04-15T05:33:49.402Z,5.97
2023-04-15T05:36:29.903Z,1.97
2023-04-15T05:38:56.747Z,3.17
2023-04-15T05:41:33.036Z,2.47
2023-04-15T05:44:02.100Z,3.13
2023-04-15T05:47:23.524Z,3.17
2023-04-15T05:49:53.574Z,3.80
2023-04-15T05:52:22.957Z,2.63
2023-04-15T05:54:49.743Z,4.57
2023-04-15T05:57:16.827Z,2.20
2023-04-15T05:59:49.550Z,3.47
2023-04-15T06:02:43.698Z,3.07
2023-04-15T06:05:11.976Z,3.77
2023-04-15T06:07:38.954Z,4.77
2023-04-15T06:10:06.692Z,5.40
2023-04-15T06:12:36.517Z,3.67
2023-04-15T06:15:04.070Z,4.07
2023-04-15T06:18:06.245Z,4.43
2023-04-15T06:20:36.913Z,5.43
2023-04-15T06:23:08.972Z,4.00
2023-04-15T06:25:35.865Z,4.20
2023-04-15T06:28:02.649Z,2.40
2023-04-15T06:30:45.336Z,2.57
2023-04-15T06:33:12.696Z,4.97
2023-04-15T06:35:41.893Z,4.00
2023-04-15T06:38:22.095Z,3.03
2023-04-15T06:40:48.780Z,3.40
2023-04-15T06:43:16.616Z,3.37
2023-04-15T06:45:46.204Z,4.73
2023-04-15T06:48:13.293Z,4.73
2023-04-15T06:54:39.801Z,3.50
2023-04-15T06:57:08.002Z,4.80
2023-04-15T06:59:34.777Z,3.47
2023-04-15T07:02:01.823Z,3.33
2023-04-15T07:04:28.860Z,3.53
2023-04-15T07:06:55.811Z,3.60
2023-04-15T07:09:23.913Z,4.83
2023-04-15T07:11:51.625Z,4.67
2023-04-15T07:14:18.588Z,6.13
2023-04-15T07:17:00.863Z,5.40
2023-04-15T07:19:27.840Z,6.27
2023-04-15T07:21:54.556Z,2.47
2023-04-15T07:24:36.682Z,4.40
2023-04-15T07:27:04.241Z,3.75
2023-04-15T07:29:31.613Z,3.10
2023-04-15T07:32:24.543Z,4.05
2023-04-15T07:34:51.190Z,5.22
2023-04-15T07:37:19.151Z,4.75
2023-04-15T07:40:12.116Z,2.95
2023-04-15T07:42:41.168Z,7.28
2023-04-15T07:45:09.492Z,3.15
2023-04-15T07:47:36.778Z,4.28
2023-04-15T07:50:03.879Z,6.72
2023-04-15T07:52:30.781Z,6.65
2023-04-15T07:55:23.594Z,4.68
2023-04-15T07:57:50.606Z,11.57
2023-04-15T08:00:24.792Z,6.13
2023-04-15T08:02:54.778Z,5.72
2023-04-15T08:05:22.159Z,7.55
2023-04-15T08:07:48.974Z,5.60
2023-04-15T08:10:15.857Z,4.40
2023-04-15T08:12:43.116Z,5.38
2023-04-15T08:15:10.281Z,6.18
2023-04-15T08:17:42.373Z,5.22
2023-04-15T08:20:09.789Z,4.80
2023-04-15T08:23:19.983Z,3.15
2023-04-15T08:25:47.040Z,2.92
2023-04-15T08:28:13.934Z,4.03
2023-04-15T08:30:41.021Z,2.60
2023-04-15T08:33:07.959Z,5.00
2023-04-15T08:35:34.748Z,4.10
2023-04-15T08:38:01.557Z,3.33
2023-04-15T08:40:38.746Z,4.40
2023-04-15T08:43:08.206Z,3.47
2023-04-15T08:45:44.999Z,4.53
2023-04-15T08:48:16.992Z,4.20
2023-04-15T08:51:16.347Z,2.20
2023-04-15T08:53:46.638Z,2.83
2023-04-15T08:56:16.021Z,3.65
2023-04-15T08:58:45.058Z,4.00
2023-04-15T09:01:21.945Z,4.18
2023-04-15T09:03:54.697Z,4.32
2023-04-15T09:06:30.116Z,4.35
2023-04-15T09:08:57.776Z,2.65
2023-04-15T09:11:26.118Z,7.45
2023-04-15T09:13:53.044Z,3.83
2023-04-15T09:16:32.795Z,4.07
2023-04-15T09:18:59.697Z,3.13
2023-04-15T09:21:32.325Z,3.75
2023-04-15T09:24:01.656Z,3.97
2023-04-15T09:27:01.821Z,3.15
2023-04-15T09:29:31.730Z,4.83
2023-04-15T09:32:10.819Z,3.27
2023-04-15T09:34:38.149Z,3.43
2023-04-15T09:37:05.124Z,4.23
2023-04-15T09:39:52.625Z,4.43
2023-04-15T09:42:27.017Z,2.40
2023-04-15T09:44:54.183Z,2.70
2023-04-15T09:51:06.810Z,3.33
2023-04-15T09:53:36.345Z,5.83
2023-04-15T09:57:00.631Z,3.53
2023-04-15T09:59:27.202Z,4.57
2023-04-15T10:01:56.526Z,3.90
2023-04-15T10:04:24.213Z,4.13
2023-04-15T10:06:51.433Z,4.33
2023-04-15T10:09:22.400Z,4.27
2023-04-15T10:11:50.424Z,3.17
2023-04-15T10:14:19.449Z,4.30
2023-04-15T10:16:49.209Z,4.80
2023-04-15T10:19:37.268Z,5.30
2023-04-15T10:22:04.467Z,6.90
2023-04-15T10:24:34.623Z,4.40
2023-04-15T10:27:07.219Z,4.03
2023-04-15T10:29:34.697Z,4.50
2023-04-15T10:32:11.672Z,2.70
2023-04-15T10:34:38.977Z,7.37
2023-04-15T10:37:09.532Z,8.07
2023-04-15T10:39:42.258Z,5.32
2023-04-15T10:42:22.769Z,5.57
2023-04-15T10:44:54.069Z,7.40
2023-04-15T10:47:22.285Z,5.28
2023-04-15T10:50:01.312Z,4.20
2023-04-15T10:52:29.304Z,4.73
2023-04-15T10:55:11.215Z,5.60
2023-04-15T10:57:39.878Z,4.75
2023-04-15T11:00:22.463Z,4.40
2023-04-15T11:02:53.412Z,4.70
2023-04-15T11:05:22.654Z,3.53
2023-04-15T11:08:04.701Z,5.10
2023-04-15T11:10:31.520Z,5.20
2023-04-15T11:13:06.551Z,5.57
2023-04-15T11:15:34.491Z,5.20
2023-04-15T11:18:19.563Z,4.87
2023-04-15T11:20:59.374Z,4.30
2023-04-15T11:23:34.439Z,6.82
2023-04-15T11:26:05.611Z,5.47
2023-04-15T11:28:33.964Z,5.77
2023-04-15T11:31:12.216Z,3.57
2023-04-15T11:34:03.948Z,6.17
2023-04-15T11:36:34.713Z,5.87
2023-04-15T11:43:50.158Z,6.60
2023-04-15T11:46:17.187Z,6.70
2023-04-15T11:48:48.839Z,5.00
2023-04-15T11:51:16.277Z,4.57
2023-04-15T11:53:52.459Z,5.35
2023-04-15T11:56:24.577Z,4.53
2023-04-15T11:59:10.730Z,5.15
2023-04-15T12:01:49.013Z,3.80
2023-04-15T12:04:23.219Z,3.80
2023-04-15T12:07:17.096Z,2.63
2023-04-15T12:09:45.890Z,4.72
2023-04-15T12:12:14.205Z,4.50
2023-04-15T12:14:44.705Z,4.85
2023-04-15T12:17:13.355Z,4.55
2023-04-15T12:19:54.381Z,3.03
2023-04-15T12:23:09.106Z,4.17
2023-04-15T12:25:36.375Z,2.85
2023-04-15T12:28:23.479Z,2.35
2023-04-15T12:30:54.232Z,2.75
2023-04-15T12:33:23.138Z,1.98
2023-04-15T12:35:49.929Z,3.70
2023-04-15T12:38:20.262Z,3.30
2023-04-15T12:40:47.520Z,4.57
2023-04-15T12:43:14.309Z,4.95
2023-04-15T12:45:41.473Z,4.10
2023-04-15T12:48:09.421Z,5.43
2023-04-15T12:50:52.664Z,3.60
2023-04-15T12:53:20.662Z,3.97
2023-04-15T12:55:49.886Z,3.27
2023-04-15T12:58:40.010Z,5.70
2023-04-15T13:01:07.002Z,4.93
2023-04-15T13:03:34.101Z,2.83
2023-04-15T13:06:02.391Z,2.10
2023-04-15T13:08:29.276Z,3.83
2023-04-15T13:11:52.978Z,1.38
2023-04-15T13:14:27.371Z,1.60
2023-04-15T13:16:54.445Z,2.60
2023-04-15T13:19:52.195Z,2.17
2023-04-15T13:22:20.520Z,1.30
2023-04-15T13:25:40.266Z,2.00
2023-04-15T13:28:06.976Z,2.67
2023-04-15T13:30:33.941Z,1.97
2023-04-15T13:33:37.130Z,2.07
2023-04-15T13:36:04.321Z,1.77
2023-04-15T13:38:33.488Z,3.57
2023-04-15T13:41:00.290Z,2.27
2023-04-15T13:43:27.175Z,1.20
2023-04-15T13:45:54.197Z,1.03
2023-04-15T13:48:21.274Z,3.07
2023-04-15T13:50:48.092Z,2.33
2023-04-15T13:53:47.084Z,1.10
2023-04-15T13:56:17.029Z,1.90
2023-04-15T13:58:44.078Z,3.70
2023-04-15T14:01:11.108Z,1.83
2023-04-15T14:03:49.283Z,1.57
2023-04-15T14:06:16.340Z,3.07
2023-04-15T14:08:43.753Z,2.20
2023-04-15T14:11:16.697Z,1.30
2023-04-15T14:13:46.953Z,1.73
2023-04-15T14:16:13.778Z,3.47
2023-04-15T14:18:44.815Z,2.43
2023-04-15T14:21:11.926Z,1.57
2023-04-15T14:23:38.970Z,1.47
2023-04-15T14:26:20.590Z,1.07
2023-04-15T14:28:48.562Z,1.33
2023-04-15T14:31:15.553Z,1.37
2023-04-15T14:33:42.787Z,1.40
2023-04-15T14:36:10.266Z,2.03
2023-04-15T14:38:41.195Z,0.80
2023-04-15T14:45:10.720Z,0.80
2023-04-15T14:47:37.684Z,0.70
2023-04-15T14:50:04.943Z,1.70
2023-04-15T14:52:38.958Z,1.87
2023-04-15T14:55:13.240Z,0.90
2023-04-15T14:57:41.574Z,1.77
2023-04-15T15:00:10.793Z,1.67
2023-04-15T15:03:01.997Z,3.17
2023-04-15T15:05:29.232Z,1.07
2023-04-15T15:07:58.865Z,1.63
2023-04-15T15:11:03.483Z,1.90
2023-04-15T15:13:30.626Z,0.70
2023-04-15T15:15:58.436Z,1.10
2023-04-15T15:18:28.056Z,1.90
2023-04-15T15:20:54.977Z,1.37
2023-04-15T15:23:24.484Z,0.87
2023-04-15T15:25:59.877Z,0.77
2023-04-15T15:29:04.403Z,2.17
2023-04-15T15:31:36.638Z,0.80
2023-04-15T15:34:04.254Z,1.07
2023-04-15T15:36:34.117Z,1.57
2023-04-15T15:39:01.014Z,1.27
2023-04-15T15:41:27.992Z,1.00
2023-04-15T15:43:58.110Z,1.03
2023-04-15T15:46:28.138Z,1.03
2023-04-15T15:48:55.457Z,1.10
2023-04-15T15:51:26.883Z,1.07
2023-04-15T15:53:54.807Z,1.63
2023-04-15T15:56:21.782Z,1.17
2023-04-15T15:58:48.583Z,1.33
2023-04-15T16:01:15.530Z,2.40
2023-04-15T16:04:15.789Z,0.90
2023-04-15T16:06:48.400Z,1.17
2023-04-15T16:09:19.982Z,2.60
2023-04-15T16:11:46.844Z,1.63
2023-04-15T16:14:14.333Z,1.63
2023-04-15T16:16:41.419Z,1.93
2023-04-15T16:20:01.235Z,2.00
2023-04-15T16:22:39.335Z,2.77
2023-04-15T16:25:06.481Z,1.70
2023-04-15T16:27:33.833Z,1.80
2023-04-15T16:30:42.661Z,3.00
2023-04-15T16:33:51.727Z,1.53
2023-04-15T16:36:18.749Z,1.87
2023-04-15T16:38:48.535Z,1.70
2023-04-15T16:41:16.079Z,2.20
2023-04-15T16:43:53.121Z,2.20
2023-04-15T16:46:19.803Z,2.03
2023-04-15T16:48:49.084Z,2.30
2023-04-15T16:51:15.865Z,2.50
2023-04-15T16:53:51.006Z,2.93
2023-04-15T16:56:17.867Z,2.23
2023-04-15T16:58:47.255Z,2.30
2023-04-15T17:01:14.297Z,2.30
2023-04-15T17:06:24.459Z,2.63
2023-04-15T17:08:51.792Z,2.30
2023-04-15T17:11:19.448Z,1.87
2023-04-15T17:13:49.213Z,1.93
2023-04-15T17:16:18.066Z,2.60
2023-04-15T17:18:47.573Z,2.70
2023-04-15T17:21:15.498Z,2.40
2023-04-15T17:23:42.440Z,2.83
2023-04-15T17:26:09.185Z,3.37
2023-04-15T17:28:36.300Z,3.47
2023-04-15T17:31:04.764Z,3.47
2023-04-15T17:34:00.722Z,3.53
2023-04-15T17:36:18.578Z,3.70
2023-04-15T17:38:46.046Z,4.17
2023-04-15T17:41:12.982Z,3.60
2023-04-15T17:43:39.941Z,4.07
2023-04-15T17:46:07.894Z,4.77
2023-04-15T17:48:34.979Z,4.07
2023-04-15T17:51:01.745Z,5.73
2023-04-15T17:53:28.712Z,4.30
2023-04-15T17:56:01.624Z,4.73
2023-04-15T17:58:28.568Z,5.53
2023-04-15T18:00:55.481Z,5.57
2023-04-15T18:03:22.321Z,4.83
2023-04-15T18:05:49.083Z,5.63
2023-04-15T18:08:32.316Z,6.17
2023-04-15T18:10:59.202Z,6.23
2023-04-15T18:13:26.145Z,7.37
2023-04-15T18:15:53.159Z,7.20
2023-04-15T18:18:20.044Z,6.93
2023-04-15T18:20:46.909Z,7.50
2023-04-15T18:23:17.032Z,7.73
2023-04-15T18:25:43.992Z,8.60
2023-04-15T18:28:35.918Z,8.30
2023-04-15T18:31:03.523Z,7.97
2023-04-15T18:33:30.290Z,8.67
2023-04-15T18:36:13.503Z,8.57
2023-04-15T18:38:40.174Z,9.47
2023-04-15T18:45:07.027Z,8.63
2023-04-15T18:47:33.955Z,8.67
2023-04-15T18:50:00.891Z,9.23
2023-04-15T18:52:27.836Z,9.93
2023-04-15T18:55:20.117Z,9.77
2023-04-15T18:57:48.604Z,9.33
2023-04-15T19:00:16.260Z,10.30
2023-04-15T19:02:44.041Z,10.70
2023-04-15T19:05:11.029Z,11.20
2023-04-15T19:07:37.893Z,10.67
2023-04-15T19:10:06.101Z,11.60
2023-04-15T19:12:43.574Z,10.50
2023-04-15T19:15:10.625Z,11.50
2023-04-15T19:17:37.496Z,11.97
2023-04-15T19:20:04.386Z,11.90
2023-04-15T19:22:31.331Z,11.57
2023-04-15T19:24:58.029Z,13.90
2023-04-15T19:27:24.913Z,12.70
2023-04-15T19:29:55.125Z,12.53
2023-04-15T19:32:22.648Z,13.20
2023-04-15T19:34:52.475Z,14.03
2023-04-15T19:37:19.375Z,15.00
2023-04-15T19:39:46.388Z,14.60
2023-04-15T19:42:13.320Z,15.63
2023-04-15T19:44:43.228Z,15.80
2023-04-15T19:47:10.989Z,15.23
2023-04-15T19:49:38.161Z,15.30
2023-04-15T19:52:05.222Z,17.30
2023-04-15T19:54:57.210Z,16.60
2023-04-15T19:57:24.178Z,15.33
2023-04-15T19:59:51.226Z,16.00
2023-04-15T20:02:18.319Z,16.50
2023-04-15T20:04:45.300Z,16.87
2023-04-15T20:07:11.980Z,17.07
2023-04-15T20:09:38.877Z,17.70
2023-04-15T20:12:49.638Z,16.40
2023-04-15T20:15:00.575Z,16.30
2023-04-15T20:17:27.541Z,16.20
2023-04-15T20:19:55.322Z,18.63
2023-04-15T20:22:22.020Z,19.10
2023-04-15T20:24:48.997Z,18.10
2023-04-15T20:27:15.759Z,18.33
2023-04-15T20:29:42.587Z,20.60
2023-04-15T20:32:11.765Z,19.23
2023-04-15T20:38:38.605Z,18.90
2023-04-15T20:41:05.647Z,19.37
2023-04-15T20:47:32.850Z,19.23
2023-04-15T20:49:59.760Z,19.50
2023-04-15T20:52:26.365Z,20.17
2023-04-15T20:54:54.338Z,20.73
2023-04-15T20:57:21.194Z,21.60
2023-04-15T20:59:48.017Z,23.47
2023-04-15T21:02:14.917Z,22.43
2023-04-15T21:05:11.155Z,21.27
2023-04-15T21:07:41.414Z,19.77
2023-04-15T21:10:08.503Z,19.27
2023-04-15T21:12:41.854Z,18.80
2023-04-15T21:15:09.478Z,19.80
2023-04-15T21:17:36.384Z,18.03
2023-04-15T21:20:03.856Z,19.03
2023-04-15T21:22:31.522Z,17.83
2023-04-15T21:24:58.302Z,17.33
2023-04-15T21:27:26.245Z,17.60
2023-04-15T21:33:53.275Z,16.47
2023-04-15T21:36:20.031Z,15.43
2023-04-15T21:42:47.998Z,15.97
2023-04-15T21:45:15.584Z,14.13
2023-04-15T21:48:04.217Z,13.57
2023-04-15T21:50:29.652Z,13.13
2023-04-15T21:52:56.492Z,15.40
2023-04-15T21:55:23.356Z,14.03
2023-04-15T21:57:50.250Z,14.10
2023-04-15T22:04:07.711Z,13.77
2023-04-15T22:06:34.662Z,16.40
2023-04-15T22:09:01.898Z,17.27
2023-04-15T22:11:31.133Z,14.03
2023-04-15T22:17:51.542Z,15.37
2023-04-15T22:20:18.693Z,15.80
2023-04-15T22:22:45.381Z,15.07
2023-04-15T22:25:12.695Z,15.83
2023-04-15T22:27:39.459Z,14.63
2023-04-15T22:30:07.287Z,13.27
2023-04-15T22:32:36.984Z,12.97
2023-04-15T22:35:04.108Z,14.10
2023-04-15T22:37:57.000Z,14.87
2023-04-15T22:40:23.880Z,14.37
2023-04-15T22:43:31.426Z,12.77
2023-04-15T22:45:58.479Z,14.77
2023-04-15T22:48:25.232Z,13.03
2023-04-15T22:50:51.981Z,13.23
2023-04-15T22:53:18.941Z,13.13
2023-04-15T22:55:47.776Z,13.27
2023-04-15T22:58:15.925Z,13.37
2023-04-15T23:00:45.022Z,13.70
2023-04-15T23:03:12.245Z,12.67
2023-04-15T23:05:41.326Z,13.47
2023-04-15T23:08:55.304Z,13.63
2023-04-15T23:11:22.109Z,13.57
2023-04-15T23:13:50.563Z,12.23
2023-04-15T23:16:17.202Z,13.50
2023-04-15T23:19:01.500Z,13.37
2023-04-15T23:21:29.150Z,13.40
2023-04-15T23:23:56.004Z,12.40
2023-04-15T23:26:22.633Z,13.17
2023-04-15T23:28:49.258Z,12.63
2023-04-15T23:31:31.415Z,13.03
2023-04-15T23:33:58.113Z,14.37
2023-04-15T23:36:25.146Z,13.33
2023-04-15T23:38:51.907Z,12.80
2023-04-15T23:41:18.733Z,13.30
2023-04-15T23:43:45.922Z,12.73
2023-04-15T23:46:12.905Z,14.03
2023-04-15T23:48:50.720Z,14.83
2023-04-15T23:51:17.848Z,15.37
2023-04-15T23:53:44.761Z,14.10
2023-04-15T23:56:11.623Z,13.27
2023-04-15T23:58:38.329Z,13.33
